sensor_id;sensor_type;location;lat;lon;timestamp;temperature;humidity
2723;DHT22;1369;53.216;10.396;2024-03-22T00:01:44;8.80;99.90
2723;DHT22;1369;53.216;10.396;2024-03-22T00:04:10;8.80;99.90
2723;DHT22;1369;53.216;10.396;2024-03-22T00:06:35;8.80;99.90
2723;DHT22;1369;53.216;10.396;2024-03-22T00:09:01;8.80;99.90
2723;DHT22;1369;53.216;10.396;2024-03-22T00:11:27;8.80;99.90
2723;DHT22;1369;53.216;10.396;2024-03-22T00:13:52;8.90;99.90
2723;DHT22;1369;53.216;10.396;2024-03-22T00:16:18;8.90;99.90
2723;DHT22;1369;53.216;10.396;2024-03-22T00:18:43;8.90;99.90
2723;DHT22;1369;53.216;10.396;2024-03-22T00:21:09;8.90;99.90
2723;DHT22;1369;53.216;10.396;2024-03-22T00:23:35;9.00;99.90
2723;DHT22;1369;53.216;10.396;2024-03-22T00:26:01;9.00;99.90
2723;DHT22;1369;53.216;10.396;2024-03-22T00:28:26;9.00;99.90
2723;DHT22;1369;53.216;10.396;2024-03-22T00:30:52;9.00;99.90
2723;DHT22;1369;53.216;10.396;2024-03-22T00:33:17;9.10;99.90
2723;DHT22;1369;53.216;10.396;2024-03-22T00:35:43;9.10;99.90
2723;DHT22;1369;53.216;10.396;2024-03-22T00:38:09;9.10;99.90
2723;DHT22;1369;53.216;10.396;2024-03-22T00:40:34;9.10;99.90
2723;DHT22;1369;53.216;10.396;2024-03-22T00:43:00;9.10;99.90
2723;DHT22;1369;53.216;10.396;2024-03-22T00:45:25;9.10;99.90
2723;DHT22;1369;53.216;10.396;2024-03-22T00:47:51;9.20;99.90
2723;DHT22;1369;53.216;10.396;2024-03-22T00:50:16;9.20;99.90
2723;DHT22;1369;53.216;10.396;2024-03-22T00:52:42;9.20;99.90
2723;DHT22;1369;53.216;10.396;2024-03-22T00:55:08;9.20;99.90
2723;DHT22;1369;53.216;10.396;2024-03-22T00:57:34;9.20;99.90
2723;DHT22;1369;53.216;10.396;2024-03-22T01:00:00;9.20;99.90
2723;DHT22;1369;53.216;10.396;2024-03-22T01:02:25;9.20;99.90
2723;DHT22;1369;53.216;10.396;2024-03-22T01:04:51;9.20;99.90
2723;DHT22;1369;53.216;10.396;2024-03-22T01:07:17;9.20;99.90
2723;DHT22;1369;53.216;10.396;2024-03-22T01:09:42;9.20;99.90
2723;DHT22;1369;53.216;10.396;2024-03-22T01:12:09;9.20;99.90
2723;DHT22;1369;53.216;10.396;2024-03-22T01:14:35;9.20;99.90
2723;DHT22;1369;53.216;10.396;2024-03-22T01:17:01;9.20;99.90
2723;DHT22;1369;53.216;10.396;2024-03-22T01:19:27;9.20;99.90
2723;DHT22;1369;53.216;10.396;2024-03-22T01:21:52;9.30;99.90
2723;DHT22;1369;53.216;10.396;2024-03-22T01:24:18;9.30;99.90
2723;DHT22;1369;53.216;10.396;2024-03-22T01:26:44;9.30;99.90
2723;DHT22;1369;53.216;10.396;2024-03-22T01:29:09;9.30;99.90
2723;DHT22;1369;53.216;10.396;2024-03-22T01:31:35;9.30;99.90
2723;DHT22;1369;53.216;10.396;2024-03-22T01:34:01;9.30;99.90
2723;DHT22;1369;53.216;10.396;2024-03-22T01:36:26;9.30;99.90
2723;DHT22;1369;53.216;10.396;2024-03-22T01:38:52;9.30;99.90
2723;DHT22;1369;53.216;10.396;2024-03-22T01:41:17;9.30;99.90
2723;DHT22;1369;53.216;10.396;2024-03-22T01:43:43;9.30;99.90
2723;DHT22;1369;53.216;10.396;2024-03-22T01:46:09;9.30;99.90
2723;DHT22;1369;53.216;10.396;2024-03-22T01:48:35;9.30;99.90
2723;DHT22;1369;53.216;10.396;2024-03-22T01:51:02;9.30;99.90
2723;DHT22;1369;53.216;10.396;2024-03-22T01:53:29;9.30;99.90
2723;DHT22;1369;53.216;10.396;2024-03-22T01:55:55;9.40;99.90
2723;DHT22;1369;53.216;10.396;2024-03-22T01:58:21;9.40;99.90
2723;DHT22;1369;53.216;10.396;2024-03-22T02:00:47;9.30;99.90
2723;DHT22;1369;53.216;10.396;2024-03-22T02:03:13;9.30;99.90
2723;DHT22;1369;53.216;10.396;2024-03-22T02:05:38;9.30;99.90
2723;DHT22;1369;53.216;10.396;2024-03-22T02:08:05;9.30;99.90
2723;DHT22;1369;53.216;10.396;2024-03-22T02:10:31;9.30;99.90
2723;DHT22;1369;53.216;10.396;2024-03-22T02:12:57;9.30;99.90
2723;DHT22;1369;53.216;10.396;2024-03-22T02:15:24;9.20;99.90
2723;DHT22;1369;53.216;10.396;2024-03-22T02:17:49;9.10;99.90
2723;DHT22;1369;53.216;10.396;2024-03-22T02:20:15;9.10;99.90
2723;DHT22;1369;53.216;10.396;2024-03-22T02:22:41;9.10;99.90
2723;DHT22;1369;53.216;10.396;2024-03-22T02:25:06;9.20;99.90
2723;DHT22;1369;53.216;10.396;2024-03-22T02:27:34;9.10;99.90
2723;DHT22;1369;53.216;10.396;2024-03-22T02:29:59;9.20;99.90
2723;DHT22;1369;53.216;10.396;2024-03-22T02:32:25;9.20;99.90
2723;DHT22;1369;53.216;10.396;2024-03-22T02:34:50;9.20;99.90
2723;DHT22;1369;53.216;10.396;2024-03-22T02:37:16;9.20;99.90
2723;DHT22;1369;53.216;10.396;2024-03-22T02:39:42;9.20;99.90
2723;DHT22;1369;53.216;10.396;2024-03-22T02:42:08;9.20;99.90
2723;DHT22;1369;53.216;10.396;2024-03-22T02:44:33;9.20;99.90
2723;DHT22;1369;53.216;10.396;2024-03-22T02:46:59;9.20;99.90
2723;DHT22;1369;53.216;10.396;2024-03-22T02:49:25;9.30;99.90
2723;DHT22;1369;53.216;10.396;2024-03-22T02:51:51;9.30;99.90
2723;DHT22;1369;53.216;10.396;2024-03-22T02:54:16;9.30;99.90
2723;DHT22;1369;53.216;10.396;2024-03-22T02:56:42;9.30;99.90
2723;DHT22;1369;53.216;10.396;2024-03-22T02:59:08;9.30;99.90
2723;DHT22;1369;53.216;10.396;2024-03-22T03:01:33;9.40;99.90
2723;DHT22;1369;53.216;10.396;2024-03-22T03:03:59;9.40;99.90
2723;DHT22;1369;53.216;10.396;2024-03-22T03:06:24;9.40;99.90
2723;DHT22;1369;53.216;10.396;2024-03-22T03:08:50;9.40;99.90
2723;DHT22;1369;53.216;10.396;2024-03-22T03:11:15;9.40;99.90
2723;DHT22;1369;53.216;10.396;2024-03-22T03:13:41;9.50;99.90
2723;DHT22;1369;53.216;10.396;2024-03-22T03:16:07;9.50;99.90
2723;DHT22;1369;53.216;10.396;2024-03-22T03:18:32;9.50;99.90
2723;DHT22;1369;53.216;10.396;2024-03-22T03:20:58;9.50;99.90
2723;DHT22;1369;53.216;10.396;2024-03-22T03:23:23;9.50;99.90
2723;DHT22;1369;53.216;10.396;2024-03-22T03:25:49;9.50;99.90
2723;DHT22;1369;53.216;10.396;2024-03-22T03:28:15;9.60;99.90
2723;DHT22;1369;53.216;10.396;2024-03-22T03:30:40;9.60;99.90
2723;DHT22;1369;53.216;10.396;2024-03-22T03:33:06;9.60;99.90
2723;DHT22;1369;53.216;10.396;2024-03-22T03:35:31;9.50;99.90
2723;DHT22;1369;53.216;10.396;2024-03-22T03:37:57;9.60;99.90
2723;DHT22;1369;53.216;10.396;2024-03-22T03:40:22;9.60;99.90
2723;DHT22;1369;53.216;10.396;2024-03-22T03:42:53;9.60;99.90
2723;DHT22;1369;53.216;10.396;2024-03-22T03:45:18;9.70;99.90
2723;DHT22;1369;53.216;10.396;2024-03-22T03:47:44;9.60;99.90
2723;DHT22;1369;53.216;10.396;2024-03-22T03:50:10;9.70;99.90
2723;DHT22;1369;53.216;10.396;2024-03-22T03:52:35;9.70;99.90
2723;DHT22;1369;53.216;10.396;2024-03-22T03:55:01;9.70;99.90
2723;DHT22;1369;53.216;10.396;2024-03-22T03:57:26;9.70;99.90
2723;DHT22;1369;53.216;10.396;2024-03-22T03:59:52;9.60;99.90
2723;DHT22;1369;53.216;10.396;2024-03-22T04:02:18;9.70;99.90
2723;DHT22;1369;53.216;10.396;2024-03-22T04:04:43;9.70;99.90
2723;DHT22;1369;53.216;10.396;2024-03-22T04:07:09;9.70;99.90
2723;DHT22;1369;53.216;10.396;2024-03-22T04:09:34;9.70;99.90
2723;DHT22;1369;53.216;10.396;2024-03-22T04:12:00;9.70;99.90
2723;DHT22;1369;53.216;10.396;2024-03-22T04:14:26;9.70;99.90
2723;DHT22;1369;53.216;10.396;2024-03-22T04:16:52;9.70;99.90
2723;DHT22;1369;53.216;10.396;2024-03-22T04:19:20;9.70;99.90
2723;DHT22;1369;53.216;10.396;2024-03-22T04:21:46;9.70;99.90
2723;DHT22;1369;53.216;10.396;2024-03-22T04:24:12;9.80;99.90
2723;DHT22;1369;53.216;10.396;2024-03-22T04:26:37;9.80;99.90
2723;DHT22;1369;53.216;10.396;2024-03-22T04:29:03;9.80;99.90
2723;DHT22;1369;53.216;10.396;2024-03-22T04:31:29;9.80;99.90
2723;DHT22;1369;53.216;10.396;2024-03-22T04:33:54;9.80;99.90
2723;DHT22;1369;53.216;10.396;2024-03-22T04:36:20;9.80;99.90
2723;DHT22;1369;53.216;10.396;2024-03-22T04:38:45;9.80;99.90
2723;DHT22;1369;53.216;10.396;2024-03-22T04:41:11;9.80;99.90
2723;DHT22;1369;53.216;10.396;2024-03-22T04:43:37;9.80;99.90
2723;DHT22;1369;53.216;10.396;2024-03-22T04:46:03;9.80;99.90
2723;DHT22;1369;53.216;10.396;2024-03-22T04:48:28;9.80;99.90
2723;DHT22;1369;53.216;10.396;2024-03-22T04:50:54;9.80;99.90
2723;DHT22;1369;53.216;10.396;2024-03-22T04:53:20;9.80;99.90
2723;DHT22;1369;53.216;10.396;2024-03-22T04:55:46;9.80;99.90
2723;DHT22;1369;53.216;10.396;2024-03-22T04:58:19;9.80;99.90
2723;DHT22;1369;53.216;10.396;2024-03-22T05:00:49;9.80;99.90
2723;DHT22;1369;53.216;10.396;2024-03-22T05:03:15;9.80;99.90
2723;DHT22;1369;53.216;10.396;2024-03-22T05:05:42;9.90;99.90
2723;DHT22;1369;53.216;10.396;2024-03-22T05:08:08;9.90;99.90
2723;DHT22;1369;53.216;10.396;2024-03-22T05:10:35;9.90;99.90
2723;DHT22;1369;53.216;10.396;2024-03-22T05:13:01;9.90;99.90
2723;DHT22;1369;53.216;10.396;2024-03-22T05:15:26;9.90;99.90
2723;DHT22;1369;53.216;10.396;2024-03-22T05:17:52;9.90;99.90
2723;DHT22;1369;53.216;10.396;2024-03-22T05:20:19;9.90;99.90
2723;DHT22;1369;53.216;10.396;2024-03-22T05:22:45;9.90;99.90
2723;DHT22;1369;53.216;10.396;2024-03-22T05:25:10;9.90;99.90
2723;DHT22;1369;53.216;10.396;2024-03-22T05:27:36;9.90;99.90
2723;DHT22;1369;53.216;10.396;2024-03-22T05:30:02;9.90;99.90
2723;DHT22;1369;53.216;10.396;2024-03-22T05:32:29;9.90;99.90
2723;DHT22;1369;53.216;10.396;2024-03-22T05:34:55;9.90;99.90
2723;DHT22;1369;53.216;10.396;2024-03-22T05:37:21;9.90;99.90
2723;DHT22;1369;53.216;10.396;2024-03-22T05:39:47;9.90;99.90
2723;DHT22;1369;53.216;10.396;2024-03-22T05:42:13;9.90;99.90
2723;DHT22;1369;53.216;10.396;2024-03-22T05:44:38;9.90;99.90
2723;DHT22;1369;53.216;10.396;2024-03-22T05:47:04;9.90;99.90
2723;DHT22;1369;53.216;10.396;2024-03-22T05:49:30;10.00;99.90
2723;DHT22;1369;53.216;10.396;2024-03-22T05:51:55;10.00;99.90
2723;DHT22;1369;53.216;10.396;2024-03-22T05:54:21;10.00;99.90
2723;DHT22;1369;53.216;10.396;2024-03-22T05:56:46;10.00;99.90
2723;DHT22;1369;53.216;10.396;2024-03-22T05:59:12;10.00;99.90
2723;DHT22;1369;53.216;10.396;2024-03-22T06:01:38;10.00;99.90
2723;DHT22;1369;53.216;10.396;2024-03-22T06:04:04;10.00;99.90
2723;DHT22;1369;53.216;10.396;2024-03-22T06:06:32;10.10;99.90
2723;DHT22;1369;53.216;10.396;2024-03-22T06:08:57;10.10;99.90
2723;DHT22;1369;53.216;10.396;2024-03-22T06:11:25;10.10;99.90
2723;DHT22;1369;53.216;10.396;2024-03-22T06:13:51;10.10;99.90
2723;DHT22;1369;53.216;10.396;2024-03-22T06:16:17;10.20;99.90
2723;DHT22;1369;53.216;10.396;2024-03-22T06:18:42;10.20;99.90
2723;DHT22;1369;53.216;10.396;2024-03-22T06:21:08;10.30;99.90
2723;DHT22;1369;53.216;10.396;2024-03-22T06:23:33;10.30;99.90
2723;DHT22;1369;53.216;10.396;2024-03-22T06:25:59;10.30;99.90
2723;DHT22;1369;53.216;10.396;2024-03-22T06:28:27;10.40;99.90
2723;DHT22;1369;53.216;10.396;2024-03-22T06:30:52;10.40;99.90
2723;DHT22;1369;53.216;10.396;2024-03-22T06:33:18;10.50;99.90
2723;DHT22;1369;53.216;10.396;2024-03-22T06:35:44;10.50;99.90
2723;DHT22;1369;53.216;10.396;2024-03-22T06:38:10;10.60;99.90
2723;DHT22;1369;53.216;10.396;2024-03-22T06:40:35;10.60;99.90
2723;DHT22;1369;53.216;10.396;2024-03-22T06:43:01;10.60;99.90
2723;DHT22;1369;53.216;10.396;2024-03-22T06:45:27;10.60;99.90
2723;DHT22;1369;53.216;10.396;2024-03-22T06:47:53;10.60;99.90
2723;DHT22;1369;53.216;10.396;2024-03-22T06:50:18;10.70;99.90
2723;DHT22;1369;53.216;10.396;2024-03-22T06:52:50;10.70;99.90
2723;DHT22;1369;53.216;10.396;2024-03-22T06:55:16;10.70;99.90
2723;DHT22;1369;53.216;10.396;2024-03-22T06:57:42;10.70;99.90
2723;DHT22;1369;53.216;10.396;2024-03-22T07:00:07;10.80;99.90
2723;DHT22;1369;53.216;10.396;2024-03-22T07:02:35;10.90;99.90
2723;DHT22;1369;53.216;10.396;2024-03-22T07:05:01;10.90;99.90
2723;DHT22;1369;53.216;10.396;2024-03-22T07:07:26;11.00;99.90
2723;DHT22;1369;53.216;10.396;2024-03-22T07:09:52;11.10;99.90
2723;DHT22;1369;53.216;10.396;2024-03-22T07:12:17;11.10;99.90
2723;DHT22;1369;53.216;10.396;2024-03-22T07:14:43;11.20;99.90
2723;DHT22;1369;53.216;10.396;2024-03-22T07:17:09;11.30;99.90
2723;DHT22;1369;53.216;10.396;2024-03-22T07:19:35;11.40;99.90
2723;DHT22;1369;53.216;10.396;2024-03-22T07:22:01;11.40;99.90
2723;DHT22;1369;53.216;10.396;2024-03-22T07:24:27;11.50;99.90
2723;DHT22;1369;53.216;10.396;2024-03-22T07:26:53;11.60;99.90
2723;DHT22;1369;53.216;10.396;2024-03-22T07:29:19;11.70;99.90
2723;DHT22;1369;53.216;10.396;2024-03-22T07:31:45;11.70;99.90
2723;DHT22;1369;53.216;10.396;2024-03-22T07:34:10;11.80;99.90
2723;DHT22;1369;53.216;10.396;2024-03-22T07:36:39;11.80;99.90
2723;DHT22;1369;53.216;10.396;2024-03-22T07:39:05;11.90;99.90
2723;DHT22;1369;53.216;10.396;2024-03-22T07:41:34;11.90;99.90
2723;DHT22;1369;53.216;10.396;2024-03-22T07:44:00;11.90;99.90
2723;DHT22;1369;53.216;10.396;2024-03-22T07:46:27;11.90;99.90
2723;DHT22;1369;53.216;10.396;2024-03-22T07:48:53;12.00;99.90
2723;DHT22;1369;53.216;10.396;2024-03-22T07:51:19;12.00;99.90
2723;DHT22;1369;53.216;10.396;2024-03-22T07:53:45;12.00;99.90
2723;DHT22;1369;53.216;10.396;2024-03-22T07:56:11;12.00;99.90
2723;DHT22;1369;53.216;10.396;2024-03-22T07:58:38;12.00;99.90
2723;DHT22;1369;53.216;10.396;2024-03-22T08:01:04;12.00;99.90
2723;DHT22;1369;53.216;10.396;2024-03-22T08:03:29;12.00;99.90
2723;DHT22;1369;53.216;10.396;2024-03-22T08:05:55;11.90;99.90
2723;DHT22;1369;53.216;10.396;2024-03-22T08:08:21;11.90;99.90
2723;DHT22;1369;53.216;10.396;2024-03-22T08:10:46;11.90;99.90
2723;DHT22;1369;53.216;10.396;2024-03-22T08:13:12;11.80;99.90
2723;DHT22;1369;53.216;10.396;2024-03-22T08:15:38;11.80;99.90
2723;DHT22;1369;53.216;10.396;2024-03-22T08:18:03;11.70;99.90
2723;DHT22;1369;53.216;10.396;2024-03-22T08:20:29;11.70;99.90
2723;DHT22;1369;53.216;10.396;2024-03-22T08:22:55;11.60;99.90
2723;DHT22;1369;53.216;10.396;2024-03-22T08:25:22;11.60;99.90
2723;DHT22;1369;53.216;10.396;2024-03-22T08:27:50;11.60;99.90
2723;DHT22;1369;53.216;10.396;2024-03-22T08:30:15;11.60;99.90
2723;DHT22;1369;53.216;10.396;2024-03-22T08:32:41;11.50;99.90
2723;DHT22;1369;53.216;10.396;2024-03-22T08:35:06;11.50;99.90
2723;DHT22;1369;53.216;10.396;2024-03-22T08:37:33;11.50;99.90
2723;DHT22;1369;53.216;10.396;2024-03-22T08:39:58;11.50;99.90
2723;DHT22;1369;53.216;10.396;2024-03-22T08:42:24;11.50;99.90
2723;DHT22;1369;53.216;10.396;2024-03-22T08:44:50;11.50;99.90
2723;DHT22;1369;53.216;10.396;2024-03-22T08:47:15;11.50;99.90
2723;DHT22;1369;53.216;10.396;2024-03-22T08:49:41;11.50;99.90
2723;DHT22;1369;53.216;10.396;2024-03-22T08:52:09;11.50;99.90
2723;DHT22;1369;53.216;10.396;2024-03-22T08:54:34;11.50;99.90
2723;DHT22;1369;53.216;10.396;2024-03-22T08:57:00;11.60;99.90
2723;DHT22;1369;53.216;10.396;2024-03-22T08:59:27;11.60;99.90
2723;DHT22;1369;53.216;10.396;2024-03-22T09:01:52;11.60;99.90
2723;DHT22;1369;53.216;10.396;2024-03-22T09:04:18;11.60;99.90
2723;DHT22;1369;53.216;10.396;2024-03-22T09:06:44;11.60;99.90
2723;DHT22;1369;53.216;10.396;2024-03-22T09:09:10;11.60;99.90
2723;DHT22;1369;53.216;10.396;2024-03-22T09:11:36;11.60;99.90
2723;DHT22;1369;53.216;10.396;2024-03-22T09:14:02;11.60;99.90
2723;DHT22;1369;53.216;10.396;2024-03-22T09:16:28;11.50;99.90
2723;DHT22;1369;53.216;10.396;2024-03-22T09:18:53;11.50;99.90
2723;DHT22;1369;53.216;10.396;2024-03-22T09:21:19;11.50;99.90
2723;DHT22;1369;53.216;10.396;2024-03-22T09:23:45;11.60;99.90
2723;DHT22;1369;53.216;10.396;2024-03-22T09:26:11;11.60;99.90
2723;DHT22;1369;53.216;10.396;2024-03-22T09:28:36;11.60;99.90
2723;DHT22;1369;53.216;10.396;2024-03-22T09:31:08;11.60;99.90
2723;DHT22;1369;53.216;10.396;2024-03-22T09:33:34;11.60;99.90
2723;DHT22;1369;53.216;10.396;2024-03-22T09:36:00;11.60;99.90
2723;DHT22;1369;53.216;10.396;2024-03-22T09:38:25;11.60;99.90
2723;DHT22;1369;53.216;10.396;2024-03-22T09:40:51;11.60;99.90
2723;DHT22;1369;53.216;10.396;2024-03-22T09:43:21;11.60;99.90
2723;DHT22;1369;53.216;10.396;2024-03-22T09:45:47;11.60;99.90
2723;DHT22;1369;53.216;10.396;2024-03-22T09:48:18;11.60;99.90
2723;DHT22;1369;53.216;10.396;2024-03-22T09:50:47;11.60;99.90
2723;DHT22;1369;53.216;10.396;2024-03-22T09:53:20;11.70;99.90
2723;DHT22;1369;53.216;10.396;2024-03-22T09:55:50;11.70;99.90
2723;DHT22;1369;53.216;10.396;2024-03-22T09:58:17;11.70;99.90
2723;DHT22;1369;53.216;10.396;2024-03-22T10:00:43;11.80;99.90
2723;DHT22;1369;53.216;10.396;2024-03-22T10:03:10;11.70;99.90
2723;DHT22;1369;53.216;10.396;2024-03-22T10:05:36;11.80;99.90
2723;DHT22;1369;53.216;10.396;2024-03-22T10:08:05;11.80;99.90
2723;DHT22;1369;53.216;10.396;2024-03-22T10:10:31;11.90;99.90
2723;DHT22;1369;53.216;10.396;2024-03-22T10:12:57;11.90;99.90
2723;DHT22;1369;53.216;10.396;2024-03-22T10:15:24;11.90;99.90
2723;DHT22;1369;53.216;10.396;2024-03-22T10:17:51;11.90;99.90
2723;DHT22;1369;53.216;10.396;2024-03-22T10:20:17;11.90;99.90
2723;DHT22;1369;53.216;10.396;2024-03-22T10:22:47;11.80;99.90
2723;DHT22;1369;53.216;10.396;2024-03-22T10:25:13;11.80;99.90
2723;DHT22;1369;53.216;10.396;2024-03-22T10:27:39;11.80;99.90
2723;DHT22;1369;53.216;10.396;2024-03-22T10:30:08;11.70;99.90
2723;DHT22;1369;53.216;10.396;2024-03-22T10:32:38;11.70;99.90
2723;DHT22;1369;53.216;10.396;2024-03-22T10:35:04;11.70;99.90
2723;DHT22;1369;53.216;10.396;2024-03-22T10:37:32;11.80;99.90
2723;DHT22;1369;53.216;10.396;2024-03-22T10:40:01;11.80;99.90
2723;DHT22;1369;53.216;10.396;2024-03-22T10:42:36;11.80;99.90
2723;DHT22;1369;53.216;10.396;2024-03-22T10:45:03;11.80;99.90
2723;DHT22;1369;53.216;10.396;2024-03-22T10:47:30;11.90;99.90
2723;DHT22;1369;53.216;10.396;2024-03-22T10:50:05;11.90;99.90
2723;DHT22;1369;53.216;10.396;2024-03-22T10:52:34;11.90;99.90
2723;DHT22;1369;53.216;10.396;2024-03-22T10:55:02;12.00;99.90
2723;DHT22;1369;53.216;10.396;2024-03-22T10:57:29;12.00;99.90
2723;DHT22;1369;53.216;10.396;2024-03-22T10:59:56;12.00;99.90
2723;DHT22;1369;53.216;10.396;2024-03-22T11:02:24;12.00;99.90
2723;DHT22;1369;53.216;10.396;2024-03-22T11:04:59;12.10;99.90
2723;DHT22;1369;53.216;10.396;2024-03-22T11:07:29;12.10;99.90
2723;DHT22;1369;53.216;10.396;2024-03-22T11:10:00;12.10;99.90
2723;DHT22;1369;53.216;10.396;2024-03-22T11:12:28;12.10;99.90
2723;DHT22;1369;53.216;10.396;2024-03-22T11:14:56;12.10;99.90
2723;DHT22;1369;53.216;10.396;2024-03-22T11:17:21;12.10;99.90
2723;DHT22;1369;53.216;10.396;2024-03-22T11:19:53;12.10;99.90
2723;DHT22;1369;53.216;10.396;2024-03-22T11:22:18;12.10;99.90
2723;DHT22;1369;53.216;10.396;2024-03-22T11:24:44;12.20;99.90
2723;DHT22;1369;53.216;10.396;2024-03-22T11:27:10;12.20;99.90
2723;DHT22;1369;53.216;10.396;2024-03-22T11:29:37;12.20;99.90
2723;DHT22;1369;53.216;10.396;2024-03-22T11:32:06;12.20;99.90
2723;DHT22;1369;53.216;10.396;2024-03-22T11:34:35;12.20;99.90
2723;DHT22;1369;53.216;10.396;2024-03-22T11:37:00;12.30;99.90
2723;DHT22;1369;53.216;10.396;2024-03-22T11:39:26;12.30;99.90
2723;DHT22;1369;53.216;10.396;2024-03-22T11:41:51;12.40;99.90
2723;DHT22;1369;53.216;10.396;2024-03-22T11:44:17;12.30;99.90
2723;DHT22;1369;53.216;10.396;2024-03-22T11:46:44;12.30;99.90
2723;DHT22;1369;53.216;10.396;2024-03-22T11:49:11;12.30;99.90
2723;DHT22;1369;53.216;10.396;2024-03-22T11:51:36;12.30;99.90
2723;DHT22;1369;53.216;10.396;2024-03-22T11:54:03;12.30;99.90
2723;DHT22;1369;53.216;10.396;2024-03-22T11:56:28;12.40;99.90
2723;DHT22;1369;53.216;10.396;2024-03-22T11:59:00;12.30;99.90
2723;DHT22;1369;53.216;10.396;2024-03-22T12:01:26;12.30;99.90
2723;DHT22;1369;53.216;10.396;2024-03-22T12:03:52;12.30;99.90
2723;DHT22;1369;53.216;10.396;2024-03-22T12:06:17;12.30;99.90
2723;DHT22;1369;53.216;10.396;2024-03-22T12:08:43;12.20;99.90
2723;DHT22;1369;53.216;10.396;2024-03-22T12:11:10;12.30;99.90
2723;DHT22;1369;53.216;10.396;2024-03-22T12:13:35;12.20;99.90
2723;DHT22;1369;53.216;10.396;2024-03-22T12:16:03;12.30;99.90
2723;DHT22;1369;53.216;10.396;2024-03-22T12:18:29;12.20;99.90
2723;DHT22;1369;53.216;10.396;2024-03-22T12:20:54;12.20;99.90
2723;DHT22;1369;53.216;10.396;2024-03-22T12:23:20;12.30;99.90
2723;DHT22;1369;53.216;10.396;2024-03-22T12:25:46;12.40;99.90
2723;DHT22;1369;53.216;10.396;2024-03-22T12:28:11;12.40;99.90
2723;DHT22;1369;53.216;10.396;2024-03-22T12:30:37;12.50;99.90
2723;DHT22;1369;53.216;10.396;2024-03-22T12:33:03;12.70;99.90
2723;DHT22;1369;53.216;10.396;2024-03-22T12:35:28;12.90;99.90
2723;DHT22;1369;53.216;10.396;2024-03-22T12:37:58;13.10;99.90
2723;DHT22;1369;53.216;10.396;2024-03-22T12:40:23;13.30;99.90
2723;DHT22;1369;53.216;10.396;2024-03-22T12:42:49;13.30;99.90
2723;DHT22;1369;53.216;10.396;2024-03-22T12:45:15;13.50;99.90
2723;DHT22;1369;53.216;10.396;2024-03-22T12:47:40;13.50;99.90
2723;DHT22;1369;53.216;10.396;2024-03-22T12:50:06;13.30;99.90
2723;DHT22;1369;53.216;10.396;2024-03-22T12:52:32;13.10;99.90
2723;DHT22;1369;53.216;10.396;2024-03-22T12:54:58;13.00;99.90
2723;DHT22;1369;53.216;10.396;2024-03-22T12:57:24;12.80;99.90
2723;DHT22;1369;53.216;10.396;2024-03-22T12:59:49;12.80;99.90
2723;DHT22;1369;53.216;10.396;2024-03-22T13:02:15;12.80;99.90
2723;DHT22;1369;53.216;10.396;2024-03-22T13:04:40;12.70;99.90
2723;DHT22;1369;53.216;10.396;2024-03-22T13:07:06;12.60;99.90
2723;DHT22;1369;53.216;10.396;2024-03-22T13:09:31;12.60;99.90
2723;DHT22;1369;53.216;10.396;2024-03-22T13:11:57;12.60;99.90
2723;DHT22;1369;53.216;10.396;2024-03-22T13:14:22;12.50;99.90
2723;DHT22;1369;53.216;10.396;2024-03-22T13:16:48;12.50;99.90
2723;DHT22;1369;53.216;10.396;2024-03-22T13:19:14;12.50;99.90
2723;DHT22;1369;53.216;10.396;2024-03-22T13:21:40;12.50;99.90
2723;DHT22;1369;53.216;10.396;2024-03-22T13:24:08;12.50;99.90
2723;DHT22;1369;53.216;10.396;2024-03-22T13:26:33;12.60;99.90
2723;DHT22;1369;53.216;10.396;2024-03-22T13:28:59;12.60;99.90
2723;DHT22;1369;53.216;10.396;2024-03-22T13:31:24;12.60;99.90
2723;DHT22;1369;53.216;10.396;2024-03-22T13:33:50;12.60;99.90
2723;DHT22;1369;53.216;10.396;2024-03-22T13:36:15;12.60;99.90
2723;DHT22;1369;53.216;10.396;2024-03-22T13:38:41;12.60;99.90
2723;DHT22;1369;53.216;10.396;2024-03-22T13:41:06;12.60;99.90
2723;DHT22;1369;53.216;10.396;2024-03-22T13:43:32;12.50;99.90
2723;DHT22;1369;53.216;10.396;2024-03-22T13:45:58;12.50;99.90
2723;DHT22;1369;53.216;10.396;2024-03-22T13:48:25;12.50;99.90
2723;DHT22;1369;53.216;10.396;2024-03-22T13:50:55;12.40;99.90
2723;DHT22;1369;53.216;10.396;2024-03-22T13:53:21;12.40;99.90
2723;DHT22;1369;53.216;10.396;2024-03-22T13:55:50;12.30;99.90
2723;DHT22;1369;53.216;10.396;2024-03-22T13:58:18;12.30;99.90
2723;DHT22;1369;53.216;10.396;2024-03-22T14:00:44;12.30;99.90
2723;DHT22;1369;53.216;10.396;2024-03-22T14:03:09;12.20;99.90
2723;DHT22;1369;53.216;10.396;2024-03-22T14:05:35;12.20;99.90
2723;DHT22;1369;53.216;10.396;2024-03-22T14:08:01;12.30;99.90
2723;DHT22;1369;53.216;10.396;2024-03-22T14:10:29;12.20;99.90
2723;DHT22;1369;53.216;10.396;2024-03-22T14:12:57;12.20;99.90
2723;DHT22;1369;53.216;10.396;2024-03-22T14:15:23;12.20;99.90
2723;DHT22;1369;53.216;10.396;2024-03-22T14:17:56;12.20;99.90
2723;DHT22;1369;53.216;10.396;2024-03-22T14:20:23;12.20;99.90
2723;DHT22;1369;53.216;10.396;2024-03-22T14:22:48;12.20;99.90
2723;DHT22;1369;53.216;10.396;2024-03-22T14:25:14;12.20;99.90
2723;DHT22;1369;53.216;10.396;2024-03-22T14:27:40;12.10;99.90
2723;DHT22;1369;53.216;10.396;2024-03-22T14:30:10;12.10;99.90
2723;DHT22;1369;53.216;10.396;2024-03-22T14:32:38;12.20;99.90
2723;DHT22;1369;53.216;10.396;2024-03-22T14:35:04;12.10;99.90
2723;DHT22;1369;53.216;10.396;2024-03-22T14:37:29;12.20;99.90
2723;DHT22;1369;53.216;10.396;2024-03-22T14:39:55;12.20;99.90
2723;DHT22;1369;53.216;10.396;2024-03-22T14:42:21;12.20;99.90
2723;DHT22;1369;53.216;10.396;2024-03-22T14:44:46;12.20;99.90
2723;DHT22;1369;53.216;10.396;2024-03-22T14:47:12;12.30;99.90
2723;DHT22;1369;53.216;10.396;2024-03-22T14:49:37;12.30;99.90
2723;DHT22;1369;53.216;10.396;2024-03-22T14:52:05;12.50;99.90
2723;DHT22;1369;53.216;10.396;2024-03-22T14:54:31;12.60;99.90
2723;DHT22;1369;53.216;10.396;2024-03-22T14:56:56;12.70;99.90
2723;DHT22;1369;53.216;10.396;2024-03-22T14:59:22;12.80;99.90
2723;DHT22;1369;53.216;10.396;2024-03-22T15:01:47;12.90;99.90
2723;DHT22;1369;53.216;10.396;2024-03-22T15:04:13;13.10;99.90
2723;DHT22;1369;53.216;10.396;2024-03-22T15:06:39;13.20;99.90
2723;DHT22;1369;53.216;10.396;2024-03-22T15:09:04;13.40;99.90
2723;DHT22;1369;53.216;10.396;2024-03-22T15:11:35;13.40;99.90
2723;DHT22;1369;53.216;10.396;2024-03-22T15:14:01;13.30;99.90
2723;DHT22;1369;53.216;10.396;2024-03-22T15:16:26;13.30;99.90
2723;DHT22;1369;53.216;10.396;2024-03-22T15:18:58;13.10;99.90
2723;DHT22;1369;53.216;10.396;2024-03-22T15:21:23;13.00;99.90
2723;DHT22;1369;53.216;10.396;2024-03-22T15:23:49;12.90;99.90
2723;DHT22;1369;53.216;10.396;2024-03-22T15:26:14;12.80;99.90
2723;DHT22;1369;53.216;10.396;2024-03-22T15:28:40;12.70;99.90
2723;DHT22;1369;53.216;10.396;2024-03-22T15:31:06;12.60;99.90
2723;DHT22;1369;53.216;10.396;2024-03-22T15:33:32;12.50;99.90
2723;DHT22;1369;53.216;10.396;2024-03-22T15:35:58;12.50;99.90
2723;DHT22;1369;53.216;10.396;2024-03-22T15:38:23;12.30;99.90
2723;DHT22;1369;53.216;10.396;2024-03-22T15:40:50;12.30;99.90
2723;DHT22;1369;53.216;10.396;2024-03-22T15:43:17;12.30;99.90
2723;DHT22;1369;53.216;10.396;2024-03-22T15:45:43;12.20;99.90